Time,TemperatureF,DewpointF,PressureIn,WindDirection,WindDirectionDegrees,WindSpeedMPH,WindSpeedGustMPH,Humidity,HourlyPrecipIn,Conditions,Clouds,dailyrainin,SoftwareType,DateUTC
2013-04-19 00:00:00,63.6,62.0,30.13,WSW,238,5.0,7.0,93,0.00,,,0.00,weatherlink.com 1.10,2013-04-19 04:00:00,
2013-04-19 00:15:00,63.7,62.0,30.12,South,176,5.0,8.0,93,0.00,,,0.00,weatherlink.com 1.10,2013-04-19 04:15:00,
2013-04-19 00:30:00,63.6,62.0,30.13,SW,223,5.0,9.0,93,0.00,,,0.00,weatherlink.com 1.10,2013-04-19 04:30:00,
2013-04-19 00:45:00,63.8,62.0,30.12,South,184,5.0,8.0,93,0.00,,,0.00,weatherlink.com 1.10,2013-04-19 04:45:00,
2013-04-19 01:00:00,63.9,62.0,30.12,SSW,208,5.0,8.0,93,0.00,,,0.00,weatherlink.com 1.10,2013-04-19 05:00:00,
2013-04-19 01:15:00,63.8,62.0,30.12,SSW,211,6.0,8.0,93,0.00,,,0.00,weatherlink.com 1.10,2013-04-19 05:15:00,
2013-04-19 01:30:00,63.7,62.0,30.11,South,186,5.0,8.0,93,0.00,,,0.00,weatherlink.com 1.10,2013-04-19 05:30:00,
2013-04-19 02:00:00,64.3,62.0,30.09,South,190,6.0,11.0,93,0.00,,,0.00,weatherlink.com 1.10,2013-04-19 06:00:00,
2013-04-19 02:15:00,64.2,62.0,30.09,SW,221,11.0,13.0,93,0.00,,,0.00,weatherlink.com 1.10,2013-04-19 06:15:00,
2013-04-19 02:30:00,64.3,62.0,30.08,SSE,162,8.0,12.0,93,0.00,,,0.00,weatherlink.com 1.10,2013-04-19 06:30:00,
2013-04-19 02:45:00,64.6,62.0,30.07,South,172,5.0,12.0,92,0.00,,,0.00,weatherlink.com 1.10,2013-04-19 06:45:00,
2013-04-19 03:00:00,64.5,62.0,30.07,South,179,6.0,13.0,92,0.00,,,0.00,weatherlink.com 1.10,2013-04-19 07:00:00,
2013-04-19 03:15:00,64.6,62.0,30.07,ESE,109,12.0,13.0,92,0.00,,,0.00,weatherlink.com 1.10,2013-04-19 07:15:00,
2013-04-19 03:30:00,64.6,62.0,30.06,South,177,8.0,14.0,92,0.00,,,0.00,weatherlink.com 1.10,2013-04-19 07:30:00,
2013-04-19 03:45:00,64.5,62.0,30.06,SSW,200,8.0,13.0,92,0.00,,,0.00,weatherlink.com 1.10,2013-04-19 07:45:00,
2013-04-19 04:00:00,64.6,62.0,30.05,South,188,10.0,14.0,92,0.00,,,0.00,weatherlink.com 1.10,2013-04-19 08:00:00,
2013-04-19 04:15:00,64.9,63.0,30.05,SW,222,11.0,15.0,92,0.00,,,0.00,weatherlink.com 1.10,2013-04-19 08:15:00,
2013-04-19 04:30:00,64.8,63.0,30.05,SW,225,13.0,15.0,93,0.00,,,0.00,weatherlink.com 1.10,2013-04-19 08:30:00,
2013-04-19 04:45:00,65.0,63.0,30.04,SSW,194,12.0,16.0,93,0.00,,,0.00,weatherlink.com 1.10,2013-04-19 08:45:00,
2013-04-19 05:00:00,65.1,63.0,30.04,South,184,12.0,17.0,93,0.00,,,0.00,weatherlink.com 1.10,2013-04-19 09:00:00,
2013-04-19 05:15:00,65.0,63.0,30.04,South,188,12.0,17.0,93,0.00,,,0.00,weatherlink.com 1.10,2013-04-19 09:15:00,
2013-04-19 05:30:00,64.7,63.0,30.04,South,188,8.0,17.0,93,0.00,,,0.00,weatherlink.com 1.10,2013-04-19 09:30:00,
2013-04-19 05:45:00,-999.0,-99.9,30.04,North,-999,-999.0,-999.0,-999,0.00,,,0.00,weatherlink.com 1.10,2013-04-19 09:45:00,
2013-04-19 06:01:00,-999.0,-99.9,30.05,North,-999,-999.0,-999.0,-999,0.00,,,0.00,weatherlink.com 1.10,2013-04-19 10:01:00,
2013-04-19 06:16:00,-999.0,-99.9,30.05,North,-999,-999.0,-999.0,-999,0.00,,,0.00,weatherlink.com 1.10,2013-04-19 10:16:00,
2013-04-19 06:31:00,-999.0,-99.9,30.05,North,-999,-999.0,-999.0,-999,0.00,,,0.00,weatherlink.com 1.10,2013-04-19 10:31:00,
2013-04-19 06:46:00,-999.0,-99.9,30.05,North,-999,-999.0,-999.0,-999,0.00,,,0.00,weatherlink.com 1.10,2013-04-19 10:46:00,
2013-04-19 07:01:00,-999.0,-99.9,30.05,North,-999,-999.0,-999.0,-999,0.00,,,0.00,weatherlink.com 1.10,2013-04-19 11:01:00,
2013-04-19 07:16:00,64.9,63.0,30.05,South,177,14.0,17.0,93,0.00,,,0.00,weatherlink.com 1.10,2013-04-19 11:16:00,
2013-04-19 07:31:00,65.3,64.0,30.05,SSW,210,15.0,18.0,94,0.00,,,0.00,weatherlink.com 1.10,2013-04-19 11:31:00,
2013-04-19 07:46:00,65.6,64.0,30.05,SSW,201,14.0,20.0,94,0.00,,,0.00,weatherlink.com 1.10,2013-04-19 11:46:00,
2013-04-19 08:01:00,65.7,64.0,30.05,SSW,207,12.0,19.0,94,0.00,,,0.00,weatherlink.com 1.10,2013-04-19 12:01:00,
2013-04-19 08:16:00,65.8,64.0,30.05,South,188,11.0,20.0,93,0.00,,,0.00,weatherlink.com 1.10,2013-04-19 12:16:00,
2013-04-19 08:31:00,65.9,64.0,30.05,SW,225,15.0,18.0,93,0.00,,,0.00,weatherlink.com 1.10,2013-04-19 12:31:00,
2013-04-19 08:46:00,66.2,64.0,30.05,SSW,201,13.0,18.0,93,0.00,,,0.00,weatherlink.com 1.10,2013-04-19 12:46:00,
2013-04-19 09:01:00,66.2,64.0,30.05,SW,220,11.0,19.0,92,0.00,,,0.00,weatherlink.com 1.10,2013-04-19 13:01:00,
2013-04-19 09:16:00,66.7,65.0,30.05,SSW,204,9.0,20.0,93,0.00,,,0.00,weatherlink.com 1.10,2013-04-19 13:16:00,
2013-04-19 09:31:00,66.2,64.0,30.06,South,191,7.0,16.0,92,0.00,,,0.00,weatherlink.com 1.10,2013-04-19 13:31:00,
2013-04-19 09:46:00,66.2,64.0,30.06,SW,222,8.0,14.0,92,0.00,,,0.00,weatherlink.com 1.10,2013-04-19 13:46:00,
2013-04-19 10:01:00,66.5,65.0,30.05,South,181,12.0,16.0,93,0.00,,,0.00,weatherlink.com 1.10,2013-04-19 14:01:00,
2013-04-19 10:16:00,67.2,65.0,30.06,SW,219,15.0,19.0,91,0.00,,,0.00,weatherlink.com 1.10,2013-04-19 14:16:00,
2013-04-19 10:31:00,66.5,64.0,30.06,SSW,211,12.0,16.0,91,0.00,,,0.00,weatherlink.com 1.10,2013-04-19 14:31:00,
2013-04-19 11:01:00,66.7,64.0,30.06,SW,217,14.0,15.0,91,0.00,,,0.00,weatherlink.com 1.10,2013-04-19 15:01:00,
2013-04-19 11:16:00,66.8,64.0,30.05,SW,224,9.0,16.0,91,0.00,,,0.00,weatherlink.com 1.10,2013-04-19 15:16:00,
2013-04-19 11:32:00,67.2,65.0,30.05,SW,233,15.0,19.0,91,0.00,,,0.00,weatherlink.com 1.10,2013-04-19 15:32:00,
2013-04-19 11:46:00,67.7,65.0,30.05,SW,219,13.0,20.0,90,0.00,,,0.00,weatherlink.com 1.10,2013-04-19 15:46:00,
2013-04-19 12:01:00,68.2,65.0,30.04,SW,214,14.0,21.0,90,0.00,,,0.00,weatherlink.com 1.10,2013-04-19 16:01:00,
2013-04-19 12:16:00,68.1,65.0,30.04,SW,218,19.0,20.0,89,0.00,,,0.00,weatherlink.com 1.10,2013-04-19 16:16:00,
2013-04-19 12:31:00,68.3,65.0,30.03,SW,222,15.0,22.0,90,0.00,,,0.00,weatherlink.com 1.10,2013-04-19 16:31:00,
2013-04-19 12:46:00,68.9,66.0,30.03,SSE,166,10.0,23.0,90,0.00,,,0.00,weatherlink.com 1.10,2013-04-19 16:46:00,
2013-04-19 13:01:00,69.0,66.0,30.02,SSW,208,19.0,25.0,89,0.00,,,0.00,weatherlink.com 1.10,2013-04-19 17:01:00,
2013-04-19 13:16:00,68.4,65.0,30.02,SW,231,15.0,22.0,90,0.00,,,0.00,weatherlink.com 1.10,2013-04-19 17:16:00,
2013-04-19 13:31:00,68.9,66.0,30.02,SW,231,10.0,18.0,89,0.00,,,0.00,weatherlink.com 1.10,2013-04-19 17:31:00,
2013-04-19 13:46:00,68.0,65.0,30.02,SW,228,12.0,19.0,90,0.00,,,0.00,weatherlink.com 1.10,2013-04-19 17:46:00,
2013-04-19 14:01:00,67.7,65.0,30.01,SW,217,12.0,18.0,91,0.00,,,0.00,weatherlink.com 1.10,2013-04-19 18:01:00,
2013-04-19 14:16:00,67.4,65.0,30.01,SW,228,12.0,21.0,93,0.00,,,0.00,weatherlink.com 1.10,2013-04-19 18:16:00,
2013-04-19 14:31:00,67.6,65.0,30.00,SSW,208,15.0,19.0,92,0.00,,,0.00,weatherlink.com 1.10,2013-04-19 18:31:00,
2013-04-19 14:47:00,68.1,65.0,30.00,SW,222,14.0,22.0,91,0.00,,,0.00,weatherlink.com 1.10,2013-04-19 18:47:00,
2013-04-19 15:02:00,67.8,66.0,29.99,SSW,202,19.0,26.0,92,0.00,,,0.00,weatherlink.com 1.10,2013-04-19 19:02:00,
2013-04-19 15:17:00,67.7,65.0,29.98,SSW,197,10.0,22.0,92,0.00,,,0.00,weatherlink.com 1.10,2013-04-19 19:17:00,
2013-04-19 15:32:00,68.5,66.0,29.97,SSW,205,13.0,23.0,91,0.00,,,0.00,weatherlink.com 1.10,2013-04-19 19:32:00,
2013-04-19 15:47:00,68.6,66.0,29.97,SW,225,10.0,23.0,91,0.00,,,0.00,weatherlink.com 1.10,2013-04-19 19:47:00,
2013-04-19 16:02:00,68.9,66.0,29.97,SW,233,15.0,26.0,91,0.00,,,0.00,weatherlink.com 1.10,2013-04-19 20:02:00,
2013-04-19 16:17:00,68.8,66.0,29.96,SSW,197,19.0,29.0,91,0.00,,,0.00,weatherlink.com 1.10,2013-04-19 20:17:00,
2013-04-19 16:32:00,69.0,66.0,29.95,SSW,211,25.0,26.0,91,0.00,,,0.00,weatherlink.com 1.10,2013-04-19 20:32:00,
2013-04-19 16:47:00,68.4,66.0,29.95,SSW,211,22.0,26.0,92,0.00,,,0.00,weatherlink.com 1.10,2013-04-19 20:47:00,
2013-04-19 17:02:00,68.3,66.0,29.95,SW,231,21.0,26.0,92,0.00,,,0.00,weatherlink.com 1.10,2013-04-19 21:02:00,
2013-04-19 17:17:00,68.2,66.0,29.95,SW,222,20.0,24.0,92,0.00,,,0.00,weatherlink.com 1.10,2013-04-19 21:17:00,
2013-04-19 17:32:00,68.2,66.0,29.95,SW,231,19.0,26.0,92,0.00,,,0.00,weatherlink.com 1.10,2013-04-19 21:32:00,
2013-04-19 17:47:00,68.5,66.0,29.95,SW,221,21.0,24.0,91,0.00,,,0.00,weatherlink.com 1.10,2013-04-19 21:47:00,
2013-04-19 18:02:00,68.1,66.0,29.94,SW,221,21.0,26.0,92,0.00,,,0.00,weatherlink.com 1.10,2013-04-19 22:02:00,
2013-04-19 18:17:00,67.7,65.0,29.94,SW,218,17.0,24.0,92,0.00,,,0.00,weatherlink.com 1.10,2013-04-19 22:17:00,
2013-04-19 18:32:00,67.7,65.0,29.94,SW,226,19.0,25.0,92,0.00,,,0.00,weatherlink.com 1.10,2013-04-19 22:32:00,
2013-04-19 18:47:00,67.7,66.0,29.94,SW,214,22.0,26.0,93,0.00,,,0.00,weatherlink.com 1.10,2013-04-19 22:47:00,
2013-04-19 19:02:00,67.6,66.0,29.94,SW,228,18.0,26.0,93,0.00,,,0.00,weatherlink.com 1.10,2013-04-19 23:02:00,
2013-04-19 19:17:00,67.5,65.0,29.94,SW,215,16.0,26.0,92,0.00,,,0.00,weatherlink.com 1.10,2013-04-19 23:17:00,
2013-04-19 19:32:00,68.2,66.0,29.95,SW,231,11.0,22.0,93,0.00,,,0.00,weatherlink.com 1.10,2013-04-19 23:32:00,
2013-04-19 19:47:00,67.9,66.0,29.95,SW,236,13.0,20.0,93,0.00,,,0.00,weatherlink.com 1.10,2013-04-19 23:47:00,
2013-04-19 20:02:00,68.1,66.0,29.96,SW,228,26.0,26.0,93,0.00,,,0.00,weatherlink.com 1.10,2013-04-20 00:02:00,
2013-04-19 20:17:00,67.1,65.0,29.97,SW,219,20.0,32.0,93,0.00,,,0.00,weatherlink.com 1.10,2013-04-20 00:17:00,
2013-04-19 20:32:00,66.4,65.0,29.97,WSW,252,15.0,29.0,95,0.00,,,0.00,weatherlink.com 1.10,2013-04-20 00:32:00,
2013-04-19 20:47:00,65.6,65.0,29.97,West,262,10.0,19.0,96,0.00,,,0.00,weatherlink.com 1.10,2013-04-20 00:47:00,
2013-04-19 21:02:00,65.1,64.0,29.96,SW,217,13.0,16.0,96,0.00,,,0.00,weatherlink.com 1.10,2013-04-20 01:02:00,
2013-04-19 21:17:00,65.1,64.0,29.96,SW,224,17.0,20.0,96,0.00,,,0.00,weatherlink.com 1.10,2013-04-20 01:17:00,
2013-04-19 21:33:00,65.2,64.0,29.96,SSW,208,11.0,18.0,96,0.00,,,0.00,weatherlink.com 1.10,2013-04-20 01:33:00,
2013-04-19 21:47:00,65.4,64.0,29.95,SW,217,17.0,20.0,96,0.00,,,0.00,weatherlink.com 1.10,2013-04-20 01:47:00,
2013-04-19 22:02:00,65.8,65.0,29.95,SSW,203,17.0,26.0,97,0.00,,,0.00,weatherlink.com 1.10,2013-04-20 02:02:00,
2013-04-19 22:17:00,66.0,65.0,29.94,SSW,211,20.0,28.0,96,0.00,,,0.00,weatherlink.com 1.10,2013-04-20 02:17:00,
2013-04-19 22:32:00,66.1,65.0,29.93,SSW,211,17.0,27.0,96,0.00,,,0.00,weatherlink.com 1.10,2013-04-20 02:32:00,
2013-04-19 22:47:00,66.2,65.0,29.93,SW,225,18.0,27.0,96,0.00,,,0.00,weatherlink.com 1.10,2013-04-20 02:47:00,
2013-04-19 23:02:00,66.3,65.0,29.93,WSW,242,24.0,28.0,96,0.00,,,0.00,weatherlink.com 1.10,2013-04-20 03:02:00,
2013-04-19 23:17:00,66.3,65.0,29.93,SSW,207,17.0,29.0,96,0.00,,,0.00,weatherlink.com 1.10,2013-04-20 03:17:00,
2013-04-19 23:32:00,66.4,65.0,29.92,SW,218,19.0,27.0,96,0.00,,,0.00,weatherlink.com 1.10,2013-04-20 03:32:00,
2013-04-19 23:47:00,66.1,65.0,29.92,SW,222,18.0,25.0,95,0.00,,,0.00,weatherlink.com 1.10,2013-04-20 03:47:00,